sensor_id;sensor_type;location;lat;lon;timestamp;temperature;humidity
47090;DHT22;32840;52.516;13.294;2023-06-22T00:02:40;22.70;99.90
47090;DHT22;32840;52.516;13.294;2023-06-22T00:05:25;22.60;99.90
47090;DHT22;32840;52.516;13.294;2023-06-22T00:08:10;22.60;99.90
47090;DHT22;32840;52.516;13.294;2023-06-22T00:10:55;22.50;99.90
47090;DHT22;32840;52.516;13.294;2023-06-22T00:13:42;22.50;99.90
47090;DHT22;32840;52.516;13.294;2023-06-22T00:16:26;22.50;99.90
47090;DHT22;32840;52.516;13.294;2023-06-22T00:19:11;22.50;99.90
47090;DHT22;32840;52.516;13.294;2023-06-22T00:21:56;22.50;99.90
47090;DHT22;32840;52.516;13.294;2023-06-22T00:24:44;22.40;99.90
47090;DHT22;32840;52.516;13.294;2023-06-22T00:27:29;22.30;99.90
47090;DHT22;32840;52.516;13.294;2023-06-22T00:30:16;22.30;99.90
47090;DHT22;32840;52.516;13.294;2023-06-22T00:33:01;22.30;99.90
47090;DHT22;32840;52.516;13.294;2023-06-22T00:35:46;22.10;99.90
47090;DHT22;32840;52.516;13.294;2023-06-22T00:38:31;22.10;99.90
47090;DHT22;32840;52.516;13.294;2023-06-22T00:41:17;22.10;99.90
47090;DHT22;32840;52.516;13.294;2023-06-22T00:44:01;22.00;99.90
47090;DHT22;32840;52.516;13.294;2023-06-22T00:46:46;21.90;99.90
47090;DHT22;32840;52.516;13.294;2023-06-22T00:49:31;21.90;99.90
47090;DHT22;32840;52.516;13.294;2023-06-22T00:52:16;21.90;99.90
47090;DHT22;32840;52.516;13.294;2023-06-22T00:55:05;22.00;99.90
47090;DHT22;32840;52.516;13.294;2023-06-22T00:57:51;21.90;99.90
47090;DHT22;32840;52.516;13.294;2023-06-22T01:00:40;22.00;99.90
47090;DHT22;32840;52.516;13.294;2023-06-22T01:03:26;22.10;99.90
47090;DHT22;32840;52.516;13.294;2023-06-22T01:06:15;22.00;99.90
47090;DHT22;32840;52.516;13.294;2023-06-22T01:09:11;21.90;99.90
47090;DHT22;32840;52.516;13.294;2023-06-22T01:12:02;21.90;99.90
47090;DHT22;32840;52.516;13.294;2023-06-22T01:14:57;21.80;99.90
47090;DHT22;32840;52.516;13.294;2023-06-22T01:17:44;21.70;99.90
47090;DHT22;32840;52.516;13.294;2023-06-22T01:20:30;21.70;99.90
47090;DHT22;32840;52.516;13.294;2023-06-22T01:23:26;21.70;99.90
47090;DHT22;32840;52.516;13.294;2023-06-22T01:26:16;21.80;99.90
47090;DHT22;32840;52.516;13.294;2023-06-22T01:29:04;21.80;99.90
47090;DHT22;32840;52.516;13.294;2023-06-22T01:31:51;21.70;99.90
47090;DHT22;32840;52.516;13.294;2023-06-22T01:34:36;21.80;99.90
47090;DHT22;32840;52.516;13.294;2023-06-22T01:37:28;21.70;99.90
47090;DHT22;32840;52.516;13.294;2023-06-22T01:40:14;21.70;99.90
47090;DHT22;32840;52.516;13.294;2023-06-22T01:43:01;21.60;99.90
47090;DHT22;32840;52.516;13.294;2023-06-22T01:45:46;21.60;99.90
47090;DHT22;32840;52.516;13.294;2023-06-22T01:48:31;21.50;99.90
47090;DHT22;32840;52.516;13.294;2023-06-22T01:51:16;21.40;99.90
47090;DHT22;32840;52.516;13.294;2023-06-22T01:54:01;21.40;99.90
47090;DHT22;32840;52.516;13.294;2023-06-22T01:56:47;21.40;99.90
47090;DHT22;32840;52.516;13.294;2023-06-22T01:59:39;21.40;99.90
47090;DHT22;32840;52.516;13.294;2023-06-22T02:02:32;21.40;99.90
47090;DHT22;32840;52.516;13.294;2023-06-22T02:05:18;21.40;99.90
47090;DHT22;32840;52.516;13.294;2023-06-22T02:08:13;21.30;99.90
47090;DHT22;32840;52.516;13.294;2023-06-22T02:11:02;21.30;99.90
47090;DHT22;32840;52.516;13.294;2023-06-22T02:13:49;21.30;99.90
47090;DHT22;32840;52.516;13.294;2023-06-22T02:16:35;21.30;99.90
47090;DHT22;32840;52.516;13.294;2023-06-22T02:19:23;21.40;99.90
47090;DHT22;32840;52.516;13.294;2023-06-22T02:22:08;21.30;99.90
47090;DHT22;32840;52.516;13.294;2023-06-22T02:24:53;21.30;99.90
47090;DHT22;32840;52.516;13.294;2023-06-22T02:27:38;21.40;99.90
47090;DHT22;32840;52.516;13.294;2023-06-22T02:30:25;21.40;99.90
47090;DHT22;32840;52.516;13.294;2023-06-22T02:33:10;21.40;99.90
47090;DHT22;32840;52.516;13.294;2023-06-22T02:35:57;21.40;99.90
47090;DHT22;32840;52.516;13.294;2023-06-22T02:38:43;21.40;99.90
47090;DHT22;32840;52.516;13.294;2023-06-22T02:41:32;21.40;99.90
47090;DHT22;32840;52.516;13.294;2023-06-22T02:44:17;21.50;99.90
47090;DHT22;32840;52.516;13.294;2023-06-22T02:47:02;21.50;99.90
47090;DHT22;32840;52.516;13.294;2023-06-22T02:49:47;21.60;99.90
47090;DHT22;32840;52.516;13.294;2023-06-22T02:52:32;21.60;99.90
47090;DHT22;32840;52.516;13.294;2023-06-22T02:55:17;21.70;99.90
47090;DHT22;32840;52.516;13.294;2023-06-22T02:58:02;21.60;99.90
47090;DHT22;32840;52.516;13.294;2023-06-22T03:00:50;21.60;99.90
47090;DHT22;32840;52.516;13.294;2023-06-22T03:03:40;21.60;99.90
47090;DHT22;32840;52.516;13.294;2023-06-22T03:06:25;21.60;99.90
47090;DHT22;32840;52.516;13.294;2023-06-22T03:09:13;21.60;99.90
47090;DHT22;32840;52.516;13.294;2023-06-22T03:11:57;21.60;99.90
47090;DHT22;32840;52.516;13.294;2023-06-22T03:14:42;21.70;99.90
47090;DHT22;32840;52.516;13.294;2023-06-22T03:17:27;21.70;99.90
47090;DHT22;32840;52.516;13.294;2023-06-22T03:20:12;21.70;99.90
47090;DHT22;32840;52.516;13.294;2023-06-22T03:22:57;21.70;99.90
47090;DHT22;32840;52.516;13.294;2023-06-22T03:25:42;21.70;99.90
47090;DHT22;32840;52.516;13.294;2023-06-22T03:28:29;21.70;99.90
47090;DHT22;32840;52.516;13.294;2023-06-22T03:31:14;21.70;99.90
47090;DHT22;32840;52.516;13.294;2023-06-22T03:33:59;21.70;99.90
47090;DHT22;32840;52.516;13.294;2023-06-22T03:36:44;21.80;99.90
47090;DHT22;32840;52.516;13.294;2023-06-22T03:39:31;21.70;99.90
47090;DHT22;32840;52.516;13.294;2023-06-22T03:42:17;21.70;99.90
47090;DHT22;32840;52.516;13.294;2023-06-22T03:45:03;21.70;99.90
47090;DHT22;32840;52.516;13.294;2023-06-22T03:47:48;21.70;99.90
47090;DHT22;32840;52.516;13.294;2023-06-22T03:50:33;21.80;99.90
47090;DHT22;32840;52.516;13.294;2023-06-22T03:53:18;21.80;99.90
47090;DHT22;32840;52.516;13.294;2023-06-22T03:56:04;21.90;99.90
47090;DHT22;32840;52.516;13.294;2023-06-22T03:58:49;21.90;99.90
47090;DHT22;32840;52.516;13.294;2023-06-22T04:01:34;21.90;99.90
47090;DHT22;32840;52.516;13.294;2023-06-22T04:04:19;22.00;99.90
47090;DHT22;32840;52.516;13.294;2023-06-22T04:07:04;22.10;99.90
47090;DHT22;32840;52.516;13.294;2023-06-22T04:09:49;22.10;99.90
47090;DHT22;32840;52.516;13.294;2023-06-22T04:12:35;22.20;99.90
47090;DHT22;32840;52.516;13.294;2023-06-22T04:15:20;22.00;99.90
47090;DHT22;32840;52.516;13.294;2023-06-22T04:18:04;22.00;99.90
47090;DHT22;32840;52.516;13.294;2023-06-22T04:20:49;22.00;99.90
47090;DHT22;32840;52.516;13.294;2023-06-22T04:23:37;22.00;99.90
47090;DHT22;32840;52.516;13.294;2023-06-22T04:26:23;22.00;99.90
47090;DHT22;32840;52.516;13.294;2023-06-22T04:29:09;22.10;99.90
47090;DHT22;32840;52.516;13.294;2023-06-22T04:31:58;22.10;99.90
47090;DHT22;32840;52.516;13.294;2023-06-22T04:34:43;22.10;99.90
47090;DHT22;32840;52.516;13.294;2023-06-22T04:37:28;22.10;99.90
47090;DHT22;32840;52.516;13.294;2023-06-22T04:40:13;22.00;99.90
47090;DHT22;32840;52.516;13.294;2023-06-22T04:43:00;22.00;99.90
47090;DHT22;32840;52.516;13.294;2023-06-22T04:45:48;22.10;99.90
47090;DHT22;32840;52.516;13.294;2023-06-22T04:48:36;22.20;99.90
47090;DHT22;32840;52.516;13.294;2023-06-22T04:51:21;22.30;99.90
47090;DHT22;32840;52.516;13.294;2023-06-22T04:54:07;22.40;99.90
47090;DHT22;32840;52.516;13.294;2023-06-22T04:56:52;22.60;99.90
47090;DHT22;32840;52.516;13.294;2023-06-22T04:59:45;22.80;99.90
47090;DHT22;32840;52.516;13.294;2023-06-22T05:02:30;22.90;99.90
47090;DHT22;32840;52.516;13.294;2023-06-22T05:05:17;23.00;99.90
47090;DHT22;32840;52.516;13.294;2023-06-22T05:08:03;23.00;99.90
47090;DHT22;32840;52.516;13.294;2023-06-22T05:10:51;23.00;99.90
47090;DHT22;32840;52.516;13.294;2023-06-22T05:13:36;23.00;99.90
47090;DHT22;32840;52.516;13.294;2023-06-22T05:16:21;23.00;99.90
47090;DHT22;32840;52.516;13.294;2023-06-22T05:19:08;23.00;99.90
47090;DHT22;32840;52.516;13.294;2023-06-22T05:21:53;23.00;99.90
47090;DHT22;32840;52.516;13.294;2023-06-22T05:24:38;23.00;99.90
47090;DHT22;32840;52.516;13.294;2023-06-22T05:27:24;23.10;99.90
47090;DHT22;32840;52.516;13.294;2023-06-22T05:30:09;23.20;99.90
47090;DHT22;32840;52.516;13.294;2023-06-22T05:32:54;23.30;99.90
47090;DHT22;32840;52.516;13.294;2023-06-22T05:35:39;23.20;99.90
47090;DHT22;32840;52.516;13.294;2023-06-22T05:38:24;23.20;99.90
47090;DHT22;32840;52.516;13.294;2023-06-22T05:41:12;23.20;99.90
47090;DHT22;32840;52.516;13.294;2023-06-22T05:43:56;23.30;99.90
47090;DHT22;32840;52.516;13.294;2023-06-22T05:46:43;23.40;99.90
47090;DHT22;32840;52.516;13.294;2023-06-22T05:49:30;23.50;99.90
47090;DHT22;32840;52.516;13.294;2023-06-22T05:52:17;23.60;99.90
47090;DHT22;32840;52.516;13.294;2023-06-22T05:55:03;23.60;99.90
47090;DHT22;32840;52.516;13.294;2023-06-22T05:57:48;23.50;99.90
47090;DHT22;32840;52.516;13.294;2023-06-22T06:00:33;23.50;99.90
47090;DHT22;32840;52.516;13.294;2023-06-22T06:03:18;23.40;99.90
47090;DHT22;32840;52.516;13.294;2023-06-22T06:06:04;23.40;99.90
47090;DHT22;32840;52.516;13.294;2023-06-22T06:08:52;23.50;99.90
47090;DHT22;32840;52.516;13.294;2023-06-22T06:11:38;23.50;99.90
47090;DHT22;32840;52.516;13.294;2023-06-22T06:14:25;23.60;99.90
47090;DHT22;32840;52.516;13.294;2023-06-22T06:17:10;23.80;99.90
47090;DHT22;32840;52.516;13.294;2023-06-22T06:19:55;23.80;99.90
47090;DHT22;32840;52.516;13.294;2023-06-22T06:22:41;23.80;99.90
47090;DHT22;32840;52.516;13.294;2023-06-22T06:25:27;23.70;99.90
47090;DHT22;32840;52.516;13.294;2023-06-22T06:28:12;23.80;99.90
47090;DHT22;32840;52.516;13.294;2023-06-22T06:30:57;23.80;99.90
47090;DHT22;32840;52.516;13.294;2023-06-22T06:33:43;23.90;99.90
47090;DHT22;32840;52.516;13.294;2023-06-22T06:36:29;24.00;99.90
47090;DHT22;32840;52.516;13.294;2023-06-22T06:39:14;24.10;99.90
47090;DHT22;32840;52.516;13.294;2023-06-22T06:42:00;24.30;99.90
47090;DHT22;32840;52.516;13.294;2023-06-22T06:44:45;24.50;99.90
47090;DHT22;32840;52.516;13.294;2023-06-22T06:47:31;24.80;99.50
47090;DHT22;32840;52.516;13.294;2023-06-22T06:50:16;25.00;98.80
47090;DHT22;32840;52.516;13.294;2023-06-22T06:53:01;25.30;98.00
47090;DHT22;32840;52.516;13.294;2023-06-22T06:55:46;25.80;96.60
47090;DHT22;32840;52.516;13.294;2023-06-22T06:58:32;26.20;95.40
47090;DHT22;32840;52.516;13.294;2023-06-22T07:01:18;26.20;93.60
47090;DHT22;32840;52.516;13.294;2023-06-22T07:04:04;26.20;92.70
47090;DHT22;32840;52.516;13.294;2023-06-22T07:06:49;26.10;91.20
47090;DHT22;32840;52.516;13.294;2023-06-22T07:09:34;26.00;91.90
47090;DHT22;32840;52.516;13.294;2023-06-22T07:12:19;26.30;91.00
47090;DHT22;32840;52.516;13.294;2023-06-22T07:15:08;26.60;90.80
47090;DHT22;32840;52.516;13.294;2023-06-22T07:17:53;26.80;90.10
47090;DHT22;32840;52.516;13.294;2023-06-22T07:20:38;26.90;90.00
47090;DHT22;32840;52.516;13.294;2023-06-22T07:23:23;26.70;89.00
47090;DHT22;32840;52.516;13.294;2023-06-22T07:26:10;26.80;86.20
47090;DHT22;32840;52.516;13.294;2023-06-22T07:28:57;27.00;85.00
47090;DHT22;32840;52.516;13.294;2023-06-22T07:31:42;27.10;84.80
47090;DHT22;32840;52.516;13.294;2023-06-22T07:34:30;27.10;85.20
47090;DHT22;32840;52.516;13.294;2023-06-22T07:37:15;27.20;83.30
47090;DHT22;32840;52.516;13.294;2023-06-22T07:40:03;27.20;78.70
47090;DHT22;32840;52.516;13.294;2023-06-22T07:42:50;27.20;79.50
47090;DHT22;32840;52.516;13.294;2023-06-22T07:45:38;27.30;77.40
47090;DHT22;32840;52.516;13.294;2023-06-22T07:48:24;27.20;76.90
47090;DHT22;32840;52.516;13.294;2023-06-22T07:51:12;27.20;74.00
47090;DHT22;32840;52.516;13.294;2023-06-22T07:54:01;27.30;75.40
47090;DHT22;32840;52.516;13.294;2023-06-22T07:56:46;27.50;72.80
47090;DHT22;32840;52.516;13.294;2023-06-22T07:59:31;27.50;72.30
47090;DHT22;32840;52.516;13.294;2023-06-22T08:02:17;27.50;71.50
47090;DHT22;32840;52.516;13.294;2023-06-22T08:05:02;27.50;71.40
47090;DHT22;32840;52.516;13.294;2023-06-22T08:07:49;27.50;71.80
47090;DHT22;32840;52.516;13.294;2023-06-22T08:10:34;27.60;69.80
47090;DHT22;32840;52.516;13.294;2023-06-22T08:13:20;27.70;70.80
47090;DHT22;32840;52.516;13.294;2023-06-22T08:16:05;27.70;70.50
47090;DHT22;32840;52.516;13.294;2023-06-22T08:18:52;27.80;66.10
47090;DHT22;32840;52.516;13.294;2023-06-22T08:21:36;27.80;66.70
47090;DHT22;32840;52.516;13.294;2023-06-22T08:24:22;27.70;66.50
47090;DHT22;32840;52.516;13.294;2023-06-22T08:27:07;27.70;67.00
47090;DHT22;32840;52.516;13.294;2023-06-22T08:29:53;27.50;67.30
47090;DHT22;32840;52.516;13.294;2023-06-22T08:32:42;27.30;65.80
47090;DHT22;32840;52.516;13.294;2023-06-22T08:35:27;27.30;66.70
47090;DHT22;32840;52.516;13.294;2023-06-22T08:38:12;27.20;66.40
47090;DHT22;32840;52.516;13.294;2023-06-22T08:41:07;27.00;66.90
47090;DHT22;32840;52.516;13.294;2023-06-22T08:43:54;27.00;66.50
47090;DHT22;32840;52.516;13.294;2023-06-22T08:46:39;27.10;65.60
47090;DHT22;32840;52.516;13.294;2023-06-22T08:49:25;27.10;66.10
47090;DHT22;32840;52.516;13.294;2023-06-22T08:52:10;27.20;65.60
47090;DHT22;32840;52.516;13.294;2023-06-22T08:54:55;27.10;64.40
47090;DHT22;32840;52.516;13.294;2023-06-22T08:57:40;27.00;64.80
47090;DHT22;32840;52.516;13.294;2023-06-22T09:00:26;27.00;65.80
47090;DHT22;32840;52.516;13.294;2023-06-22T09:03:15;27.10;66.00
47090;DHT22;32840;52.516;13.294;2023-06-22T09:05:59;27.20;65.40
47090;DHT22;32840;52.516;13.294;2023-06-22T09:08:44;27.30;66.20
47090;DHT22;32840;52.516;13.294;2023-06-22T09:11:31;27.50;65.90
47090;DHT22;32840;52.516;13.294;2023-06-22T09:14:16;27.70;66.80
47090;DHT22;32840;52.516;13.294;2023-06-22T09:17:01;27.90;65.40
47090;DHT22;32840;52.516;13.294;2023-06-22T09:19:46;28.00;65.00
47090;DHT22;32840;52.516;13.294;2023-06-22T09:22:32;27.90;64.90
47090;DHT22;32840;52.516;13.294;2023-06-22T09:25:18;27.90;65.90
47090;DHT22;32840;52.516;13.294;2023-06-22T09:28:05;27.90;66.40
47090;DHT22;32840;52.516;13.294;2023-06-22T09:30:50;27.90;66.90
47090;DHT22;32840;52.516;13.294;2023-06-22T09:33:36;27.90;66.10
47090;DHT22;32840;52.516;13.294;2023-06-22T09:36:22;27.90;65.30
47090;DHT22;32840;52.516;13.294;2023-06-22T09:39:07;27.80;64.30
47090;DHT22;32840;52.516;13.294;2023-06-22T09:41:52;27.80;64.70
47090;DHT22;32840;52.516;13.294;2023-06-22T09:44:37;27.60;65.80
47090;DHT22;32840;52.516;13.294;2023-06-22T09:47:22;27.50;65.90
47090;DHT22;32840;52.516;13.294;2023-06-22T09:50:10;27.70;62.80
47090;DHT22;32840;52.516;13.294;2023-06-22T09:52:55;27.70;62.50
47090;DHT22;32840;52.516;13.294;2023-06-22T09:55:40;27.80;61.80
47090;DHT22;32840;52.516;13.294;2023-06-22T09:58:26;27.90;62.90
47090;DHT22;32840;52.516;13.294;2023-06-22T10:01:13;28.10;62.80
47090;DHT22;32840;52.516;13.294;2023-06-22T10:04:02;28.00;61.70
47090;DHT22;32840;52.516;13.294;2023-06-22T10:06:47;27.80;63.50
47090;DHT22;32840;52.516;13.294;2023-06-22T10:09:33;27.70;64.00
47090;DHT22;32840;52.516;13.294;2023-06-22T10:12:21;27.70;63.80
47090;DHT22;32840;52.516;13.294;2023-06-22T10:15:07;27.80;63.80
47090;DHT22;32840;52.516;13.294;2023-06-22T10:17:51;27.80;64.20
47090;DHT22;32840;52.516;13.294;2023-06-22T10:20:36;27.80;65.00
47090;DHT22;32840;52.516;13.294;2023-06-22T10:23:24;27.70;65.10
47090;DHT22;32840;52.516;13.294;2023-06-22T10:26:09;27.80;64.70
47090;DHT22;32840;52.516;13.294;2023-06-22T10:28:56;27.90;64.80
47090;DHT22;32840;52.516;13.294;2023-06-22T10:31:40;28.10;64.00
47090;DHT22;32840;52.516;13.294;2023-06-22T10:34:25;28.10;65.30
47090;DHT22;32840;52.516;13.294;2023-06-22T10:37:11;28.10;64.70
47090;DHT22;32840;52.516;13.294;2023-06-22T10:39:56;28.10;65.10
47090;DHT22;32840;52.516;13.294;2023-06-22T10:42:43;28.10;65.00
47090;DHT22;32840;52.516;13.294;2023-06-22T10:45:31;28.10;65.30
47090;DHT22;32840;52.516;13.294;2023-06-22T10:48:19;28.00;65.50
47090;DHT22;32840;52.516;13.294;2023-06-22T10:51:04;27.90;65.80
47090;DHT22;32840;52.516;13.294;2023-06-22T10:53:49;27.80;65.80
47090;DHT22;32840;52.516;13.294;2023-06-22T10:56:35;27.70;66.00
47090;DHT22;32840;52.516;13.294;2023-06-22T10:59:20;27.80;65.80
47090;DHT22;32840;52.516;13.294;2023-06-22T11:02:10;27.80;65.50
47090;DHT22;32840;52.516;13.294;2023-06-22T11:04:55;27.80;66.70
47090;DHT22;32840;52.516;13.294;2023-06-22T11:07:43;27.80;66.40
47090;DHT22;32840;52.516;13.294;2023-06-22T11:10:29;28.00;66.40
47090;DHT22;32840;52.516;13.294;2023-06-22T11:13:16;28.10;65.10
47090;DHT22;32840;52.516;13.294;2023-06-22T11:16:01;28.10;64.20
47090;DHT22;32840;52.516;13.294;2023-06-22T11:18:46;28.10;65.50
47090;DHT22;32840;52.516;13.294;2023-06-22T11:21:31;28.20;64.50
47090;DHT22;32840;52.516;13.294;2023-06-22T11:24:18;28.50;63.70
47090;DHT22;32840;52.516;13.294;2023-06-22T11:27:05;28.70;63.50
47090;DHT22;32840;52.516;13.294;2023-06-22T11:29:50;28.70;62.90
47090;DHT22;32840;52.516;13.294;2023-06-22T11:32:37;28.70;63.10
47090;DHT22;32840;52.516;13.294;2023-06-22T11:35:22;28.70;61.70
47090;DHT22;32840;52.516;13.294;2023-06-22T11:38:07;28.60;61.30
47090;DHT22;32840;52.516;13.294;2023-06-22T11:40:52;28.40;62.40
47090;DHT22;32840;52.516;13.294;2023-06-22T11:43:37;28.30;61.40
47090;DHT22;32840;52.516;13.294;2023-06-22T11:46:23;28.10;62.00
47090;DHT22;32840;52.516;13.294;2023-06-22T11:49:08;28.10;63.40
47090;DHT22;32840;52.516;13.294;2023-06-22T11:51:53;28.00;63.60
47090;DHT22;32840;52.516;13.294;2023-06-22T11:54:38;27.90;62.70
47090;DHT22;32840;52.516;13.294;2023-06-22T11:57:27;27.90;62.70
47090;DHT22;32840;52.516;13.294;2023-06-22T12:00:12;28.00;62.90
47090;DHT22;32840;52.516;13.294;2023-06-22T12:03:02;28.20;62.90
47090;DHT22;32840;52.516;13.294;2023-06-22T12:05:47;28.40;62.30
47090;DHT22;32840;52.516;13.294;2023-06-22T12:08:32;28.30;61.10
47090;DHT22;32840;52.516;13.294;2023-06-22T12:11:17;28.40;62.80
47090;DHT22;32840;52.516;13.294;2023-06-22T12:14:04;28.50;61.90
47090;DHT22;32840;52.516;13.294;2023-06-22T12:16:50;28.30;61.60
47090;DHT22;32840;52.516;13.294;2023-06-22T12:19:35;28.30;61.70
47090;DHT22;32840;52.516;13.294;2023-06-22T12:22:21;28.30;60.90
47090;DHT22;32840;52.516;13.294;2023-06-22T12:25:10;28.30;60.80
47090;DHT22;32840;52.516;13.294;2023-06-22T12:27:55;28.30;62.60
47090;DHT22;32840;52.516;13.294;2023-06-22T12:30:41;28.30;61.80
47090;DHT22;32840;52.516;13.294;2023-06-22T12:33:26;28.30;61.70
47090;DHT22;32840;52.516;13.294;2023-06-22T12:36:11;28.40;60.70
47090;DHT22;32840;52.516;13.294;2023-06-22T12:38:56;28.30;61.20
47090;DHT22;32840;52.516;13.294;2023-06-22T12:41:41;28.30;61.10
47090;DHT22;32840;52.516;13.294;2023-06-22T12:44:26;28.40;61.00
47090;DHT22;32840;52.516;13.294;2023-06-22T12:47:11;28.30;60.10
47090;DHT22;32840;52.516;13.294;2023-06-22T12:49:56;28.30;61.00
47090;DHT22;32840;52.516;13.294;2023-06-22T12:52:41;28.30;61.50
47090;DHT22;32840;52.516;13.294;2023-06-22T12:55:25;28.30;61.30
47090;DHT22;32840;52.516;13.294;2023-06-22T12:58:11;28.40;61.20
47090;DHT22;32840;52.516;13.294;2023-06-22T13:00:56;28.40;61.00
47090;DHT22;32840;52.516;13.294;2023-06-22T13:03:42;28.60;60.40
47090;DHT22;32840;52.516;13.294;2023-06-22T13:06:26;28.70;60.10
47090;DHT22;32840;52.516;13.294;2023-06-22T13:09:15;28.70;59.90
47090;DHT22;32840;52.516;13.294;2023-06-22T13:12:04;28.60;60.80
47090;DHT22;32840;52.516;13.294;2023-06-22T13:14:49;28.60;59.20
47090;DHT22;32840;52.516;13.294;2023-06-22T13:17:34;28.60;60.50
47090;DHT22;32840;52.516;13.294;2023-06-22T13:20:22;28.60;61.10
47090;DHT22;32840;52.516;13.294;2023-06-22T13:23:07;28.70;61.40
47090;DHT22;32840;52.516;13.294;2023-06-22T13:25:52;28.60;59.80
47090;DHT22;32840;52.516;13.294;2023-06-22T13:28:37;28.60;60.60
47090;DHT22;32840;52.516;13.294;2023-06-22T13:31:22;28.60;60.40
47090;DHT22;32840;52.516;13.294;2023-06-22T13:34:07;28.60;60.30
47090;DHT22;32840;52.516;13.294;2023-06-22T13:36:54;28.60;60.30
47090;DHT22;32840;52.516;13.294;2023-06-22T13:39:41;28.60;61.00
47090;DHT22;32840;52.516;13.294;2023-06-22T13:42:25;28.60;60.60
47090;DHT22;32840;52.516;13.294;2023-06-22T13:45:11;28.60;60.50
47090;DHT22;32840;52.516;13.294;2023-06-22T13:47:57;28.60;60.80
47090;DHT22;32840;52.516;13.294;2023-06-22T13:50:42;28.60;60.60
47090;DHT22;32840;52.516;13.294;2023-06-22T13:53:27;28.60;61.20
47090;DHT22;32840;52.516;13.294;2023-06-22T13:56:12;28.60;61.00
47090;DHT22;32840;52.516;13.294;2023-06-22T13:58:58;28.50;60.80
47090;DHT22;32840;52.516;13.294;2023-06-22T14:01:44;28.60;61.10
47090;DHT22;32840;52.516;13.294;2023-06-22T14:04:29;28.60;60.70
47090;DHT22;32840;52.516;13.294;2023-06-22T14:07:22;28.60;60.90
47090;DHT22;32840;52.516;13.294;2023-06-22T14:10:09;28.60;60.60
47090;DHT22;32840;52.516;13.294;2023-06-22T14:12:55;28.60;61.20
47090;DHT22;32840;52.516;13.294;2023-06-22T14:15:39;28.60;61.20
47090;DHT22;32840;52.516;13.294;2023-06-22T14:18:24;28.60;60.80
47090;DHT22;32840;52.516;13.294;2023-06-22T14:21:09;28.70;60.80
47090;DHT22;32840;52.516;13.294;2023-06-22T14:23:56;28.70;60.80
47090;DHT22;32840;52.516;13.294;2023-06-22T14:26:40;28.70;60.60
47090;DHT22;32840;52.516;13.294;2023-06-22T14:29:27;28.60;60.40
47090;DHT22;32840;52.516;13.294;2023-06-22T14:32:13;28.60;61.10
47090;DHT22;32840;52.516;13.294;2023-06-22T14:34:59;28.60;60.90
47090;DHT22;32840;52.516;13.294;2023-06-22T14:37:44;28.60;61.20
47090;DHT22;32840;52.516;13.294;2023-06-22T14:40:29;28.70;60.50
47090;DHT22;32840;52.516;13.294;2023-06-22T14:43:14;28.60;61.90
47090;DHT22;32840;52.516;13.294;2023-06-22T14:45:59;28.60;60.90
47090;DHT22;32840;52.516;13.294;2023-06-22T14:48:45;28.60;60.90
47090;DHT22;32840;52.516;13.294;2023-06-22T14:51:30;28.60;60.80
47090;DHT22;32840;52.516;13.294;2023-06-22T14:54:15;28.60;60.90
47090;DHT22;32840;52.516;13.294;2023-06-22T14:57:00;28.50;61.10
47090;DHT22;32840;52.516;13.294;2023-06-22T14:59:46;28.50;61.30
47090;DHT22;32840;52.516;13.294;2023-06-22T15:02:33;28.50;61.00
47090;DHT22;32840;52.516;13.294;2023-06-22T15:05:19;28.50;60.90
47090;DHT22;32840;52.516;13.294;2023-06-22T15:08:05;28.50;61.20
47090;DHT22;32840;52.516;13.294;2023-06-22T15:10:52;28.60;61.60
47090;DHT22;32840;52.516;13.294;2023-06-22T15:13:41;28.50;61.40
47090;DHT22;32840;52.516;13.294;2023-06-22T15:16:26;28.60;61.50
47090;DHT22;32840;52.516;13.294;2023-06-22T15:19:11;28.50;61.00
47090;DHT22;32840;52.516;13.294;2023-06-22T15:21:57;28.50;61.40
47090;DHT22;32840;52.516;13.294;2023-06-22T15:24:42;28.60;61.50
47090;DHT22;32840;52.516;13.294;2023-06-22T15:27:27;28.60;61.10
47090;DHT22;32840;52.516;13.294;2023-06-22T15:30:12;28.60;61.50
47090;DHT22;32840;52.516;13.294;2023-06-22T15:32:57;28.60;61.50
47090;DHT22;32840;52.516;13.294;2023-06-22T15:35:42;28.50;61.30
47090;DHT22;32840;52.516;13.294;2023-06-22T15:38:28;28.50;61.50
47090;DHT22;32840;52.516;13.294;2023-06-22T15:41:13;28.50;61.40
47090;DHT22;32840;52.516;13.294;2023-06-22T15:43:58;28.60;61.10
47090;DHT22;32840;52.516;13.294;2023-06-22T15:46:46;28.60;61.10
47090;DHT22;32840;52.516;13.294;2023-06-22T15:49:31;28.60;60.90
47090;DHT22;32840;52.516;13.294;2023-06-22T15:52:18;28.50;61.50
47090;DHT22;32840;52.516;13.294;2023-06-22T15:55:03;28.40;61.90
47090;DHT22;32840;52.516;13.294;2023-06-22T15:57:48;28.50;62.10
47090;DHT22;32840;52.516;13.294;2023-06-22T16:00:34;28.50;62.90
47090;DHT22;32840;52.516;13.294;2023-06-22T16:03:19;28.50;62.20
47090;DHT22;32840;52.516;13.294;2023-06-22T16:06:04;28.50;62.10
47090;DHT22;32840;52.516;13.294;2023-06-22T16:08:49;28.50;61.80
47090;DHT22;32840;52.516;13.294;2023-06-22T16:11:34;28.50;61.80
47090;DHT22;32840;52.516;13.294;2023-06-22T16:14:22;28.50;61.90
47090;DHT22;32840;52.516;13.294;2023-06-22T16:17:07;28.50;62.50
47090;DHT22;32840;52.516;13.294;2023-06-22T16:19:54;28.40;62.80
47090;DHT22;32840;52.516;13.294;2023-06-22T16:22:40;28.30;62.90
47090;DHT22;32840;52.516;13.294;2023-06-22T16:25:25;28.20;63.10
47090;DHT22;32840;52.516;13.294;2023-06-22T16:28:10;28.20;63.60
47090;DHT22;32840;52.516;13.294;2023-06-22T16:30:55;28.10;63.60
47090;DHT22;32840;52.516;13.294;2023-06-22T16:33:40;28.20;63.60
47090;DHT22;32840;52.516;13.294;2023-06-22T16:36:32;28.10;63.70
47090;DHT22;32840;52.516;13.294;2023-06-22T16:39:20;28.10;64.00
47090;DHT22;32840;52.516;13.294;2023-06-22T16:42:05;28.00;63.90
47090;DHT22;32840;52.516;13.294;2023-06-22T16:44:50;27.90;64.10
47090;DHT22;32840;52.516;13.294;2023-06-22T16:47:43;27.90;64.60
47090;DHT22;32840;52.516;13.294;2023-06-22T16:50:27;27.90;64.30
47090;DHT22;32840;52.516;13.294;2023-06-22T16:53:12;27.80;64.40
47090;DHT22;32840;52.516;13.294;2023-06-22T16:55:58;27.80;64.50
47090;DHT22;32840;52.516;13.294;2023-06-22T16:58:44;27.80;65.00
47090;DHT22;32840;52.516;13.294;2023-06-22T17:01:29;27.70;65.10
47090;DHT22;32840;52.516;13.294;2023-06-22T17:04:21;27.70;65.10
47090;DHT22;32840;52.516;13.294;2023-06-22T17:07:25;27.60;65.10
47090;DHT22;32840;52.516;13.294;2023-06-22T17:10:17;27.60;65.40
47090;DHT22;32840;52.516;13.294;2023-06-22T17:13:13;27.50;65.60